Time;durP1;ratioP1;P1;durP2;ratioP2;P2;SDS_P1;SDS_P2;PMS_P1;PMS_P2;Temp;Humidity;BMP_temperature;BMP_pressure;BME280_temperature;BME280_humidity;BME280_pressure;Samples;Min_cycle;Max_cycle;Signal;HPM_P1;HPM_P2
2022/01/23 00:01:48;;;;;;;16.97;1.97;;;8.90;99.90;;;;;;5019436;28;20192;-66
2022/01/23 00:04:17;;;;;;;16.40;2.30;;;9.00;99.90;;;;;;5019041;28;20187;-64
2022/01/23 00:06:46;;;;;;;15.73;2.57;;;9.00;99.90;;;;;;5042045;28;20270;-66
2022/01/23 00:09:15;;;;;;;11.83;1.83;;;9.00;99.90;;;;;;5043003;28;20204;-66
2022/01/23 00:11:50;;;;;;;7.87;1.67;;;9.00;99.90;;;;;;5024198;28;20188;-65
2022/01/23 00:17:17;;;;;;;9.30;1.67;;;8.90;99.90;;;;;;5059503;28;20493;-67
2022/01/23 00:19:57;;;;;;;10.27;1.60;;;8.90;99.90;;;;;;5027082;28;20196;-64
2022/01/23 00:22:42;;;;;;;6.87;1.40;;;8.90;99.90;;;;;;5058366;28;21003;-67
2022/01/23 00:30:48;;;;;;;8.60;1.30;;;8.90;99.90;;;;;;5027018;28;20200;-68
2022/01/23 00:33:17;;;;;;;9.30;1.80;;;9.00;99.90;;;;;;5001999;28;20199;-70
2022/01/23 00:35:47;;;;;;;8.10;1.87;;;9.00;99.90;;;;;;5026862;28;20218;-66
2022/01/23 00:38:15;;;;;;;8.40;1.63;;;9.00;99.90;;;;;;5043935;28;20216;-66
2022/01/23 00:40:46;;;;;;;8.13;1.60;;;9.00;99.90;;;;;;5056407;28;20287;-66
2022/01/23 00:43:30;;;;;;;11.77;1.60;;;9.10;99.90;;;;;;5026078;28;20196;-65
2022/01/23 00:48:49;;;;;;;8.07;1.87;;;9.20;99.90;;;;;;5027297;28;20192;-67
2022/01/23 00:51:16;;;;;;;9.20;1.90;;;9.20;99.90;;;;;;5026627;28;20320;-68
2022/01/23 00:53:42;;;;;;;12.63;2.43;;;9.20;99.90;;;;;;5027104;28;20193;-67
2022/01/23 00:56:10;;;;;;;14.73;1.83;;;9.20;99.90;;;;;;5043135;28;20253;-68
2022/01/23 00:58:41;;;;;;;15.60;2.00;;;9.20;99.90;;;;;;5028454;28;20226;-69
2022/01/23 01:01:07;;;;;;;9.97;1.80;;;9.20;99.90;;;;;;5026591;28;20192;-67
2022/01/23 01:03:34;;;;;;;10.83;2.17;;;9.30;99.90;;;;;;5012805;28;20275;-67
2022/01/23 01:06:00;;;;;;;11.00;2.13;;;9.30;99.90;;;;;;5042820;28;20280;-67
2022/01/23 01:08:26;;;;;;;10.27;1.97;;;9.40;99.90;;;;;;5009384;28;20353;-69
2022/01/23 01:11:09;;;;;;;10.07;2.10;;;9.40;99.90;;;;;;5021674;28;20283;-69
2022/01/23 01:16:42;;;;;;;10.07;1.60;;;9.40;99.90;;;;;;5014537;28;20636;-68
2022/01/23 01:35:47;;;;;;;14.07;2.07;;;9.60;99.90;;;;;;5056937;28;20671;-69
2022/01/23 01:38:13;;;;;;;10.90;2.33;;;9.70;99.90;;;;;;5035066;28;20183;-68
2022/01/23 01:40:41;;;;;;;12.77;2.10;;;9.70;99.90;;;;;;5026946;28;20837;-66
2022/01/23 01:43:07;;;;;;;9.03;2.17;;;9.70;99.90;;;;;;5023132;28;20703;-69
2022/01/23 01:45:34;;;;;;;12.20;2.00;;;9.70;99.90;;;;;;5026142;28;20757;-68
2022/01/23 01:48:05;;;;;;;10.00;2.43;;;9.70;99.90;;;;;;5057684;28;20728;-69
2022/01/23 01:50:45;;;;;;;17.33;3.40;;;9.60;99.90;;;;;;5026959;28;20266;-67
2022/01/23 01:53:12;;;;;;;11.17;2.10;;;9.60;99.90;;;;;;5009429;28;20206;-66
2022/01/23 01:55:44;;;;;;;26.20;3.37;;;9.60;99.90;;;;;;5024881;28;20548;-68
2022/01/23 02:02:42;;;;;;;8.20;2.47;;;9.20;99.90;;;;;;5042944;28;20202;-68
2022/01/23 02:09:32;;;;;;;6.33;2.00;;;8.90;99.90;;;;;;5013937;28;20192;-67
2022/01/23 02:12:56;;;;;;;13.20;1.80;;;8.90;99.90;;;;;;5037592;28;20223;-68
2022/01/23 02:17:55;;;;;;;12.57;1.93;;;8.80;99.90;;;;;;5026189;28;20652;-68
2022/01/23 02:53:32;;;;;;;15.70;2.80;;;8.60;99.90;;;;;;5024648;28;20219;-68
2022/01/23 02:56:01;;;;;;;12.87;2.60;;;8.60;99.90;;;;;;5041342;28;20664;-69
2022/01/23 02:58:35;;;;;;;19.80;2.83;;;8.60;99.90;;;;;;5022144;28;20301;-69
2022/01/23 03:03:35;;;;;;;20.10;2.80;;;8.70;99.90;;;;;;5025318;28;20266;-68
2022/01/23 03:09:08;;;;;;;16.37;3.03;;;8.70;99.90;;;;;;5016078;28;20251;-66
2022/01/23 03:14:24;;;;;;;15.23;2.73;;;8.80;99.90;;;;;;5039741;28;20250;-65
2022/01/23 03:30:35;;;;;;;16.60;3.00;;;8.60;99.90;;;;;;5061354;28;20271;-65
2022/01/23 03:33:01;;;;;;;19.63;3.00;;;8.60;99.90;;;;;;5025240;28;20381;-66
2022/01/23 03:35:27;;;;;;;10.20;2.70;;;8.50;99.90;;;;;;5044669;28;20184;-66
2022/01/23 03:37:54;;;;;;;18.20;2.80;;;8.50;99.90;;;;;;5029483;28;20176;-66
2022/01/23 03:40:20;;;;;;;12.17;2.70;;;8.40;99.90;;;;;;5012187;28;20180;-66
2022/01/23 03:42:54;;;;;;;15.03;2.83;;;8.40;99.90;;;;;;5021339;28;20199;-66
2022/01/23 03:50:46;;;;;;;16.93;3.00;;;8.40;99.90;;;;;;5013048;28;20193;-65
2022/01/23 03:53:13;;;;;;;23.50;2.80;;;8.40;99.90;;;;;;5028616;28;20192;-66
2022/01/23 03:55:39;;;;;;;14.93;2.73;;;8.40;99.90;;;;;;5011609;28;20206;-66
2022/01/23 03:58:06;;;;;;;14.37;2.70;;;8.40;99.90;;;;;;5011960;28;20703;-67
2022/01/23 04:00:33;;;;;;;10.80;2.70;;;8.40;99.90;;;;;;5038574;28;20288;-69
2022/01/23 04:03:00;;;;;;;14.90;2.87;;;8.30;99.90;;;;;;5035020;28;20188;-67
2022/01/23 04:05:27;;;;;;;13.73;2.67;;;8.30;99.90;;;;;;5029526;28;20258;-67
2022/01/23 04:07:53;;;;;;;13.27;2.80;;;8.20;99.90;;;;;;5044624;28;20210;-70
2022/01/23 04:10:22;;;;;;;15.90;2.80;;;8.20;99.90;;;;;;5029035;28;20898;-66
2022/01/23 04:13:07;;;;;;;10.87;2.53;;;8.20;99.90;;;;;;5025849;28;20541;-67
2022/01/23 04:15:45;;;;;;;11.67;2.30;;;8.20;99.90;;;;;;5028424;28;20183;-70
2022/01/23 04:35:11;;;;;;;6.73;1.97;;;8.10;99.90;;;;;;5057419;28;20235;-65
2022/01/23 04:46:16;;;;;;;10.37;1.87;;;8.00;99.90;;;;;;5023671;28;20260;-65
2022/01/23 04:59:35;;;;;;;6.30;1.80;;;7.80;99.90;;;;;;5023736;28;20192;-68
2022/01/23 05:04:36;;;;;;;17.17;2.87;;;7.80;99.90;;;;;;5019416;28;20181;-65
2022/01/23 05:07:09;;;;;;;8.80;2.00;;;7.80;99.90;;;;;;5035320;28;20702;-66
2022/01/23 05:09:35;;;;;;;12.00;2.27;;;7.90;99.90;;;;;;5025352;28;20196;-65
2022/01/23 05:12:06;;;;;;;9.53;1.97;;;7.90;99.90;;;;;;5046524;28;20257;-67
2022/01/23 05:14:38;;;;;;;16.30;3.17;;;7.80;99.90;;;;;;5043052;28;20188;-66
2022/01/23 05:17:10;;;;;;;16.60;2.70;;;7.80;99.90;;;;;;5027716;28;20274;-65
2022/01/23 05:19:41;;;;;;;16.30;2.40;;;7.80;99.90;;;;;;5059456;28;20208;-67
2022/01/23 05:25:10;;;;;;;14.13;2.40;;;7.80;99.90;;;;;;5059286;28;20223;-64
2022/01/23 05:27:36;;;;;;;14.77;2.70;;;7.70;99.90;;;;;;5025623;28;20606;-67
2022/01/23 05:30:05;;;;;;;10.30;2.47;;;7.70;99.90;;;;;;5050395;28;20184;-66
2022/01/23 05:32:39;;;;;;;8.10;2.40;;;7.60;99.90;;;;;;5042258;28;20684;-64
2022/01/23 05:35:08;;;;;;;12.40;2.60;;;7.60;99.90;;;;;;5036420;28;20689;-65
2022/01/23 05:37:39;;;;;;;8.77;2.90;;;7.70;99.90;;;;;;5022738;28;20185;-67
2022/01/23 05:40:10;;;;;;;19.20;3.33;;;7.70;99.90;;;;;;5021669;28;20677;-65
2022/01/23 05:42:37;;;;;;;23.03;2.90;;;7.60;99.90;;;;;;5025414;28;20267;-65
2022/01/23 05:45:04;;;;;;;13.47;2.63;;;7.70;99.90;;;;;;5025609;28;20188;-67
2022/01/23 05:47:30;;;;;;;11.33;2.70;;;7.60;99.90;;;;;;5026384;28;20599;-65
2022/01/23 05:49:56;;;;;;;13.23;2.87;;;7.60;99.90;;;;;;5032214;28;20192;-65
2022/01/23 05:52:23;;;;;;;11.03;2.77;;;7.60;99.90;;;;;;5024522;28;20223;-66
2022/01/23 05:54:49;;;;;;;18.57;3.20;;;7.50;99.90;;;;;;5043117;28;20223;-66
2022/01/23 05:57:15;;;;;;;13.23;2.53;;;7.40;99.90;;;;;;5042162;28;20802;-65
2022/01/23 05:59:42;;;;;;;13.83;2.47;;;7.40;99.90;;;;;;5040986;28;20282;-68
2022/01/23 06:02:11;;;;;;;15.40;2.53;;;7.40;99.90;;;;;;5024312;28;20227;-65
2022/01/23 06:04:37;;;;;;;9.83;2.57;;;7.40;99.90;;;;;;5026870;28;20188;-67
2022/01/23 06:07:05;;;;;;;12.77;2.13;;;7.30;99.90;;;;;;5025807;28;20243;-67
2022/01/23 06:09:31;;;;;;;11.73;2.77;;;7.30;99.90;;;;;;5027123;28;20291;-65
2022/01/23 06:11:57;;;;;;;9.13;2.37;;;7.40;99.90;;;;;;5059175;28;20632;-65
2022/01/23 06:14:25;;;;;;;11.27;2.17;;;7.40;99.90;;;;;;5027387;28;20211;-65
2022/01/23 06:16:51;;;;;;;10.77;2.23;;;7.40;99.90;;;;;;5039907;28;20315;-65
2022/01/23 06:19:19;;;;;;;12.40;2.47;;;7.50;99.90;;;;;;5019025;28;20280;-65
2022/01/23 06:21:45;;;;;;;16.97;2.47;;;7.50;99.90;;;;;;5026091;28;20203;-65
2022/01/23 06:24:23;;;;;;;13.77;2.70;;;7.50;99.90;;;;;;5009407;28;20530;-65
2022/01/23 06:26:56;;;;;;;13.87;2.90;;;7.60;99.90;;;;;;5006898;28;20299;-65
2022/01/23 06:29:25;;;;;;;11.20;2.30;;;7.60;99.90;;;;;;5026467;28;20199;-66
2022/01/23 06:31:57;;;;;;;14.27;2.97;;;7.60;99.90;;;;;;5023704;28;20262;-67
2022/01/23 06:34:25;;;;;;;12.10;2.70;;;7.60;99.90;;;;;;5008355;28;20271;-66
2022/01/23 06:36:52;;;;;;;7.37;2.00;;;7.50;99.90;;;;;;5023920;28;20188;-67
2022/01/23 06:39:20;;;;;;;9.00;1.73;;;7.40;99.90;;;;;;5020616;28;20349;-65
2022/01/23 06:41:47;;;;;;;6.80;1.53;;;7.40;99.90;;;;;;5019654;28;20809;-64
2022/01/23 06:44:13;;;;;;;7.93;1.73;;;7.40;99.90;;;;;;5040718;28;20230;-67
2022/01/23 06:46:40;;;;;;;7.97;1.50;;;7.30;99.90;;;;;;5040448;28;20212;-65
2022/01/23 06:49:07;;;;;;;11.60;2.13;;;7.30;99.90;;;;;;5032091;28;20307;-65
2022/01/23 06:51:34;;;;;;;8.77;1.80;;;7.30;99.90;;;;;;5026285;28;20293;-64
2022/01/23 06:54:01;;;;;;;11.77;1.70;;;7.30;99.90;;;;;;5023795;28;20228;-65
2022/01/23 06:56:27;;;;;;;5.00;1.60;;;7.30;99.90;;;;;;5025095;28;20204;-65
2022/01/23 06:58:54;;;;;;;8.10;1.87;;;7.20;99.90;;;;;;5022685;28;20325;-66
2022/01/23 07:01:21;;;;;;;9.87;1.70;;;7.20;99.90;;;;;;5027613;28;20196;-65
2022/01/23 07:03:47;;;;;;;4.63;1.70;;;7.20;99.90;;;;;;5030137;28;20188;-63
2022/01/23 07:06:14;;;;;;;9.40;1.70;;;7.30;99.90;;;;;;5035938;28;20212;-65
2022/01/23 07:08:40;;;;;;;11.00;2.30;;;7.30;99.90;;;;;;5026766;28;20210;-65
2022/01/23 07:11:08;;;;;;;7.23;1.60;;;7.30;99.90;;;;;;5024649;28;20223;-66
2022/01/23 07:13:34;;;;;;;7.73;1.37;;;7.30;99.90;;;;;;5022510;28;20195;-64
2022/01/23 07:16:02;;;;;;;10.60;1.53;;;7.40;99.90;;;;;;5023602;28;20218;-66
2022/01/23 07:18:29;;;;;;;8.43;2.20;;;7.40;99.90;;;;;;5035674;28;20188;-66
2022/01/23 07:20:56;;;;;;;7.43;1.83;;;7.40;99.90;;;;;;5022236;28;20200;-63
2022/01/23 07:23:26;;;;;;;7.00;1.90;;;7.40;99.90;;;;;;5022969;28;20219;-66
2022/01/23 07:25:53;;;;;;;6.83;1.83;;;7.40;99.90;;;;;;5056509;28;20200;-64
2022/01/23 07:28:23;;;;;;;7.10;1.83;;;7.40;99.90;;;;;;5025105;28;20219;-66
2022/01/23 07:30:52;;;;;;;5.03;1.60;;;7.40;99.90;;;;;;5041011;28;20192;-64
2022/01/23 07:33:19;;;;;;;9.27;1.70;;;7.60;99.90;;;;;;5006399;28;20192;-65
2022/01/23 07:35:47;;;;;;;9.50;1.83;;;7.70;99.90;;;;;;5054050;28;20564;-68
2022/01/23 07:38:18;;;;;;;14.67;2.53;;;7.60;99.90;;;;;;5053665;28;20206;-65
2022/01/23 07:40:51;;;;;;;6.73;1.90;;;7.60;99.90;;;;;;5007832;28;20188;-65
2022/01/23 07:43:18;;;;;;;7.97;1.60;;;7.60;99.90;;;;;;4997771;28;20188;-67
2022/01/23 07:45:44;;;;;;;12.03;1.63;;;7.60;99.90;;;;;;5019588;28;20612;-67
2022/01/23 07:48:11;;;;;;;6.30;1.83;;;7.70;99.90;;;;;;5020941;28;20211;-68
2022/01/23 07:50:38;;;;;;;4.77;1.57;;;7.90;99.90;;;;;;5022844;28;20185;-68
2022/01/23 07:53:05;;;;;;;6.67;2.10;;;7.80;99.90;;;;;;5042043;28;20246;-67
2022/01/23 07:55:32;;;;;;;8.50;1.70;;;7.80;99.90;;;;;;5021831;28;20901;-68
2022/01/23 07:58:12;;;;;;;9.00;1.70;;;7.80;99.90;;;;;;5026845;28;20832;-67
2022/01/23 08:00:42;;;;;;;7.33;1.93;;;7.80;99.90;;;;;;5037979;28;20202;-67
2022/01/23 08:03:09;;;;;;;7.97;1.83;;;7.80;99.90;;;;;;5024653;28;20215;-68
2022/01/23 08:05:37;;;;;;;4.73;1.47;;;7.90;99.90;;;;;;5042034;28;20208;-67
2022/01/23 08:08:04;;;;;;;4.57;1.10;;;7.90;99.90;;;;;;5024688;28;20204;-66
2022/01/23 08:10:31;;;;;;;9.43;1.93;;;7.90;99.90;;;;;;5059717;28;20676;-68
2022/01/23 08:12:58;;;;;;;7.50;1.67;;;7.90;99.90;;;;;;5027013;28;20621;-68
2022/01/23 08:15:26;;;;;;;7.17;1.80;;;7.90;99.90;;;;;;5059304;28;20206;-67
2022/01/23 08:17:52;;;;;;;5.53;1.50;;;7.80;99.90;;;;;;5024009;28;20192;-67
2022/01/23 08:20:19;;;;;;;6.07;1.77;;;7.80;99.90;;;;;;5025734;28;20196;-67
2022/01/23 08:22:45;;;;;;;8.07;1.80;;;7.80;99.90;;;;;;5016107;28;20188;-68
2022/01/23 08:25:12;;;;;;;10.13;2.20;;;7.90;99.90;;;;;;5019472;28;20303;-67
2022/01/23 08:27:38;;;;;;;9.53;1.93;;;8.00;99.90;;;;;;5012638;28;20258;-67
2022/01/23 08:30:06;;;;;;;7.80;1.73;;;8.10;99.90;;;;;;5053874;28;20325;-66
2022/01/23 08:32:32;;;;;;;7.83;1.87;;;8.10;99.90;;;;;;5055604;28;20245;-67
2022/01/23 08:34:59;;;;;;;5.60;1.50;;;8.10;99.90;;;;;;5040617;28;20192;-68
2022/01/23 08:37:26;;;;;;;8.50;1.57;;;8.10;99.90;;;;;;5007255;28;20739;-67
2022/01/23 08:39:53;;;;;;;6.53;1.90;;;8.20;99.90;;;;;;5008203;28;20196;-67
2022/01/23 08:42:20;;;;;;;8.00;1.77;;;8.20;99.90;;;;;;5025834;28;20203;-67
2022/01/23 08:44:50;;;;;;;7.33;1.97;;;8.20;99.90;;;;;;5039526;28;20274;-67
2022/01/23 08:47:18;;;;;;;9.90;1.70;;;8.10;99.90;;;;;;5023125;28;20221;-67
2022/01/23 08:49:49;;;;;;;7.40;2.50;;;8.10;99.90;;;;;;5040240;28;20180;-69
2022/01/23 08:52:20;;;;;;;9.33;1.40;;;8.10;99.90;;;;;;5015773;28;20794;-67
2022/01/23 08:54:50;;;;;;;3.27;1.37;;;8.10;99.90;;;;;;5040296;28;20688;-66
2022/01/23 08:57:19;;;;;;;6.80;1.20;;;8.20;99.90;;;;;;5023835;28;20192;-67
2022/01/23 08:59:47;;;;;;;5.13;1.50;;;8.20;99.90;;;;;;5017798;28;20200;-66
2022/01/23 09:02:14;;;;;;;6.63;1.10;;;8.30;99.90;;;;;;5039271;28;20219;-67
2022/01/23 09:04:40;;;;;;;8.27;1.73;;;8.30;99.90;;;;;;5023758;28;20215;-68
2022/01/23 09:07:07;;;;;;;10.13;1.87;;;8.30;99.90;;;;;;5024498;28;20208;-66
2022/01/23 09:09:37;;;;;;;7.20;1.80;;;8.30;99.90;;;;;;5024847;28;20528;-66
2022/01/23 09:14:47;;;;;;;7.60;1.40;;;8.30;99.90;;;;;;5035055;28;20200;-67
2022/01/23 09:17:13;;;;;;;7.60;1.40;;;8.20;99.90;;;;;;5006390;28;20188;-68
2022/01/23 09:19:40;;;;;;;6.10;1.40;;;8.30;99.90;;;;;;5005364;28;21012;-67
2022/01/23 09:22:06;;;;;;;7.53;1.43;;;8.30;99.90;;;;;;5024375;28;20203;-66
2022/01/23 09:24:33;;;;;;;8.90;1.13;;;8.40;99.90;;;;;;5024203;28;20192;-65
2022/01/23 09:27:06;;;;;;;9.50;1.40;;;8.40;99.90;;;;;;5003319;28;20848;-66
2022/01/23 09:29:40;;;;;;;4.00;1.30;;;8.40;99.90;;;;;;5025817;28;20267;-67
2022/01/23 09:32:13;;;;;;;12.97;1.57;;;8.30;99.90;;;;;;5023232;28;20193;-66
2022/01/23 09:34:42;;;;;;;8.70;1.40;;;8.20;99.90;;;;;;5021185;28;20224;-66
2022/01/23 09:37:14;;;;;;;7.63;1.77;;;8.20;99.90;;;;;;5039528;28;20200;-67
2022/01/23 09:39:50;;;;;;;6.57;1.50;;;8.20;99.90;;;;;;5024955;28;20192;-67
2022/01/23 09:42:34;;;;;;;6.03;1.47;;;8.30;99.90;;;;;;5006231;28;20206;-67
2022/01/23 09:45:08;;;;;;;10.47;1.77;;;8.30;99.90;;;;;;5013265;28;20530;-67
2022/01/23 09:47:38;;;;;;;8.03;1.30;;;8.30;99.90;;;;;;5040322;28;63249;-67
2022/01/23 09:50:08;;;;;;;6.03;1.60;;;8.30;99.90;;;;;;5024308;28;20195;-67
2022/01/23 09:52:37;;;;;;;7.63;1.80;;;8.30;99.90;;;;;;5024543;28;20195;-67
2022/01/23 09:55:11;;;;;;;12.00;1.87;;;8.40;99.90;;;;;;5024471;28;20203;-67
2022/01/23 09:57:44;;;;;;;6.00;1.43;;;8.40;99.90;;;;;;5024389;28;20622;-66
2022/01/23 10:00:16;;;;;;;7.00;1.40;;;8.40;99.90;;;;;;5040549;28;20668;-66
2022/01/23 10:02:43;;;;;;;9.07;1.77;;;8.50;99.90;;;;;;5006642;28;20203;-68
2022/01/23 10:05:10;;;;;;;8.43;1.43;;;8.50;99.90;;;;;;5039768;28;20211;-66
2022/01/23 10:07:42;;;;;;;7.53;1.47;;;8.60;99.90;;;;;;5024310;28;20193;-66
2022/01/23 10:10:16;;;;;;;4.70;1.57;;;8.60;99.90;;;;;;5014728;28;20726;-66
2022/01/23 10:12:46;;;;;;;7.53;1.67;;;8.60;99.90;;;;;;5020736;28;20868;-66
2022/01/23 10:15:15;;;;;;;12.67;1.50;;;8.70;99.90;;;;;;5022411;28;20935;-67
2022/01/23 10:17:41;;;;;;;10.17;1.70;;;8.80;99.90;;;;;;5022093;28;20196;-67
2022/01/23 10:20:11;;;;;;;5.70;1.27;;;9.00;99.90;;;;;;5023004;28;20981;-66
2022/01/23 10:22:42;;;;;;;8.67;1.70;;;9.40;99.90;;;;;;5026132;28;20359;-66
2022/01/23 10:25:15;;;;;;;4.97;1.30;;;10.00;99.90;;;;;;5026527;28;20203;-67
2022/01/23 10:28:00;;;;;;;4.03;1.30;;;9.40;99.90;;;;;;5024334;28;20912;-66
2022/01/23 10:30:30;;;;;;;6.00;1.50;;;9.10;99.90;;;;;;5037001;28;20959;-65
2022/01/23 10:33:15;;;;;;;4.97;1.40;;;9.10;99.90;;;;;;5012229;28;20193;-68
2022/01/23 10:36:12;;;;;;;6.57;1.50;;;9.30;99.90;;;;;;5025334;28;20215;-69
2022/01/23 10:38:57;;;;;;;3.77;1.33;;;9.40;99.90;;;;;;5023152;28;20222;-69
2022/01/23 10:49:52;;;;;;;6.20;1.47;;;11.00;99.90;;;;;;5017436;28;20207;-69
2022/01/23 10:52:34;;;;;;;5.27;1.40;;;12.40;99.90;;;;;;5019014;28;20918;-69
2022/01/23 10:55:32;;;;;;;12.17;1.60;;;13.40;99.90;;;;;;5016621;28;20767;-69
2022/01/23 10:58:06;;;;;;;5.27;1.50;;;13.70;99.90;;;;;;5055777;28;20188;-67
2022/01/23 11:00:39;;;;;;;4.10;1.30;;;13.00;99.90;;;;;;5021440;28;20242;-69
2022/01/23 11:03:22;;;;;;;5.70;1.50;;;12.10;99.90;;;;;;5019652;28;20207;-67
2022/01/23 11:05:52;;;;;;;5.33;1.50;;;12.00;99.90;;;;;;5036379;28;20300;-66
2022/01/23 11:08:30;;;;;;;7.87;1.50;;;11.90;99.90;;;;;;5021530;28;20188;-67
2022/01/23 11:11:06;;;;;;;5.40;1.10;;;12.00;99.90;;;;;;5019054;28;20519;-66
2022/01/23 11:19:26;;;;;;;5.97;1.50;;;10.10;99.90;;;;;;5023621;28;20200;-68
2022/01/23 11:21:53;;;;;;;8.13;1.37;;;10.20;99.90;;;;;;5017312;28;21051;-69
2022/01/23 11:24:21;;;;;;;8.70;1.50;;;10.50;99.90;;;;;;5018839;28;20288;-67
2022/01/23 11:26:58;;;;;;;11.93;1.67;;;10.40;99.90;;;;;;5023315;28;20247;-69
2022/01/23 11:29:25;;;;;;;9.00;1.47;;;10.30;99.90;;;;;;5050715;28;20330;-67
2022/01/23 11:31:51;;;;;;;4.13;1.30;;;10.30;99.90;;;;;;5033838;28;20223;-68
2022/01/23 11:34:22;;;;;;;10.20;1.27;;;10.30;99.90;;;;;;5024254;28;20192;-68
2022/01/23 11:36:51;;;;;;;6.10;1.30;;;10.10;99.90;;;;;;5027524;28;20271;-67
2022/01/23 11:39:36;;;;;;;4.40;1.27;;;10.10;99.90;;;;;;5027634;28;20202;-67
2022/01/23 11:56:38;;;;;;;3.40;1.20;;;9.50;99.90;;;;;;5040345;28;20684;-68
2022/01/23 11:59:15;;;;;;;14.57;1.10;;;9.50;99.70;;;;;;5022046;28;20687;-68
2022/01/23 12:01:48;;;;;;;5.10;1.40;;;9.40;99.90;;;;;;5026718;28;20772;-67
2022/01/23 12:04:21;;;;;;;6.47;2.00;;;9.40;99.90;;;;;;5057776;28;21576;-68
2022/01/23 12:07:15;;;;;;;4.93;1.03;;;9.50;99.90;;;;;;5023810;28;20230;-69
2022/01/23 12:10:00;;;;;;;5.77;1.47;;;9.50;99.90;;;;;;5027082;28;20196;-68
2022/01/23 12:12:39;;;;;;;3.63;1.40;;;9.50;99.90;;;;;;5023992;28;20200;-68
2022/01/23 12:18:15;;;;;;;4.47;1.37;;;9.50;99.90;;;;;;5021991;28;20192;-68
2022/01/23 12:20:45;;;;;;;5.10;1.30;;;9.40;99.90;;;;;;5020181;28;20750;-69
2022/01/23 12:23:14;;;;;;;5.40;1.20;;;9.30;99.90;;;;;;5025268;28;20283;-69
2022/01/23 12:25:47;;;;;;;5.20;1.30;;;9.10;99.90;;;;;;5026775;28;20207;-68
2022/01/23 12:28:32;;;;;;;5.43;1.53;;;9.10;99.90;;;;;;5027742;28;20295;-68
2022/01/23 12:31:15;;;;;;;3.17;1.10;;;9.20;99.90;;;;;;5039264;28;20295;-69
2022/01/23 12:33:49;;;;;;;4.40;1.00;;;9.20;99.90;;;;;;5049038;28;20188;-68
2022/01/23 12:36:15;;;;;;;5.33;1.07;;;9.00;99.90;;;;;;5026667;28;20232;-69
2022/01/23 12:39:05;;;;;;;2.93;1.20;;;8.80;99.90;;;;;;5025857;28;20188;-69
2022/01/23 12:41:38;;;;;;;2.53;1.03;;;8.80;99.90;;;;;;5039605;28;20201;-68
2022/01/23 12:44:07;;;;;;;4.70;1.17;;;8.80;99.90;;;;;;5020701;28;20199;-68
2022/01/23 12:46:42;;;;;;;5.43;1.57;;;8.90;99.90;;;;;;5025882;28;20227;-68
2022/01/23 12:49:30;;;;;;;4.07;1.20;;;8.80;99.90;;;;;;5023901;28;20226;-70
2022/01/23 12:52:09;;;;;;;6.03;1.77;;;8.80;99.90;;;;;;5021127;28;20295;-69
2022/01/23 12:54:51;;;;;;;4.10;1.30;;;8.80;99.90;;;;;;5022404;28;20196;-67
2022/01/23 12:57:24;;;;;;;7.17;1.40;;;8.60;99.90;;;;;;5024160;28;20222;-66
2022/01/23 12:59:57;;;;;;;2.67;1.20;;;8.40;99.90;;;;;;5024440;28;20196;-67
2022/01/23 13:02:36;;;;;;;8.43;1.13;;;8.40;99.90;;;;;;5022560;28;20295;-69
2022/01/23 13:05:03;;;;;;;8.97;1.40;;;8.30;99.90;;;;;;5024530;28;20831;-66
2022/01/23 13:08:20;;;;;;;2.60;1.00;;;8.20;99.90;;;;;;5029831;28;20208;-68
2022/01/23 13:13:04;;;;;;;3.40;1.10;;;8.30;99.90;;;;;;5020345;28;20216;-67
2022/01/23 13:32:23;;;;;;;6.50;1.20;;;8.50;99.90;;;;;;5021496;28;20744;-68
2022/01/23 13:34:59;;;;;;;10.33;1.17;;;8.40;99.90;;;;;;5020906;28;20746;-67
2022/01/23 13:37:34;;;;;;;5.13;1.50;;;8.40;99.90;;;;;;5022112;28;20192;-67
2022/01/23 13:40:20;;;;;;;7.13;1.53;;;8.30;99.90;;;;;;5019571;28;20203;-67
2022/01/23 13:51:31;;;;;;;2.77;1.07;;;8.00;99.90;;;;;;5024776;28;20263;-66
2022/01/23 13:59:52;;;;;;;5.57;1.57;;;7.90;99.90;;;;;;5017376;28;20193;-67
2022/01/23 14:02:20;;;;;;;4.67;1.37;;;7.90;99.90;;;;;;5035949;28;20188;-67
2022/01/23 14:04:53;;;;;;;5.47;1.30;;;7.80;99.90;;;;;;5039185;28;20224;-67
2022/01/23 14:07:26;;;;;;;3.70;1.20;;;7.90;99.90;;;;;;5018503;28;20238;-67
2022/01/23 14:10:08;;;;;;;2.73;1.00;;;7.90;99.90;;;;;;5021928;28;20205;-67
2022/01/23 14:12:34;;;;;;;1.70;0.90;;;7.80;99.90;;;;;;5021867;28;20219;-67
2022/01/23 14:15:08;;;;;;;2.47;1.20;;;7.80;99.90;;;;;;5024883;28;20183;-64
2022/01/23 14:17:39;;;;;;;6.23;1.07;;;7.80;99.90;;;;;;5021028;28;20204;-66
2022/01/23 14:20:17;;;;;;;2.63;1.00;;;7.80;99.90;;;;;;5020467;28;20198;-66
2022/01/23 14:22:47;;;;;;;7.13;1.20;;;7.80;99.90;;;;;;5025229;28;20206;-67
2022/01/23 14:25:27;;;;;;;5.17;1.33;;;7.80;99.90;;;;;;5004072;28;20195;-66
2022/01/23 14:28:12;;;;;;;4.37;1.07;;;7.80;99.90;;;;;;5050087;28;20199;-67
2022/01/23 14:30:45;;;;;;;5.57;1.47;;;7.70;99.90;;;;;;5016258;28;20267;-66
2022/01/23 14:33:22;;;;;;;6.03;1.30;;;7.70;99.90;;;;;;5024944;28;20196;-65
2022/01/23 14:35:50;;;;;;;5.33;0.93;;;7.60;99.90;;;;;;5022123;28;20200;-67
2022/01/23 14:38:28;;;;;;;5.07;1.07;;;7.60;99.90;;;;;;5008327;28;20183;-66
2022/01/23 14:41:07;;;;;;;7.50;1.33;;;7.60;99.90;;;;;;5040756;28;20184;-65
2022/01/23 14:43:42;;;;;;;4.37;1.00;;;7.50;99.90;;;;;;5019141;28;20219;-65
2022/01/23 14:46:11;;;;;;;1.93;1.00;;;7.50;99.90;;;;;;5022102;28;20247;-66
2022/01/23 14:48:47;;;;;;;6.03;1.00;;;7.50;99.90;;;;;;5023226;28;20246;-66
2022/01/23 14:51:24;;;;;;;3.90;1.10;;;7.40;99.90;;;;;;5011999;28;20902;-66
2022/01/23 14:53:52;;;;;;;4.93;1.23;;;7.40;99.90;;;;;;5024641;28;20277;-66
2022/01/23 14:56:20;;;;;;;8.03;1.43;;;7.40;99.90;;;;;;5013500;28;20287;-66
2022/01/23 14:58:51;;;;;;;2.67;1.00;;;7.40;99.90;;;;;;5024452;28;20196;-66
2022/01/23 15:01:18;;;;;;;7.87;1.77;;;7.30;99.90;;;;;;5017755;28;20200;-67
2022/01/23 15:03:52;;;;;;;6.43;1.30;;;7.30;99.90;;;;;;5023254;28;20200;-66
2022/01/23 15:06:22;;;;;;;5.27;1.50;;;7.30;99.90;;;;;;5028289;28;20226;-67
2022/01/23 15:08:49;;;;;;;6.93;1.27;;;7.30;99.90;;;;;;5028285;28;20275;-67
2022/01/23 15:11:16;;;;;;;5.47;1.00;;;7.30;99.90;;;;;;5020030;28;20207;-66
2022/01/23 15:13:42;;;;;;;6.00;1.20;;;7.20;99.90;;;;;;5026558;28;20191;-66
2022/01/23 15:16:09;;;;;;;5.83;1.17;;;7.20;99.90;;;;;;5019451;28;20329;-67
2022/01/23 15:18:35;;;;;;;6.67;1.40;;;7.20;99.90;;;;;;5026737;28;20274;-67
2022/01/23 15:21:02;;;;;;;4.87;1.27;;;7.20;99.90;;;;;;5022119;28;20730;-67
2022/01/23 15:23:28;;;;;;;5.93;1.20;;;7.20;99.90;;;;;;5059262;28;20286;-68
2022/01/23 15:25:55;;;;;;;3.53;1.03;;;7.20;99.90;;;;;;5022336;28;20215;-67
2022/01/23 15:28:21;;;;;;;3.80;1.27;;;7.20;99.90;;;;;;5029146;28;20196;-67
2022/01/23 15:30:49;;;;;;;4.80;1.10;;;7.20;99.90;;;;;;5023713;28;20196;-68
2022/01/23 15:33:16;;;;;;;5.07;1.27;;;7.20;99.90;;;;;;5022758;28;20207;-67
2022/01/23 15:35:46;;;;;;;5.17;1.10;;;7.20;99.90;;;;;;5060046;28;20208;-67
2022/01/23 15:51:47;;;;;;;4.23;1.27;;;7.20;99.90;;;;;;5080199;27;20534;-65
2022/01/23 15:54:16;;;;;;;5.50;1.37;;;7.20;99.90;;;;;;5080518;28;20196;-67
2022/01/23 15:56:47;;;;;;;2.70;0.80;;;7.20;99.90;;;;;;5076938;28;20638;-66
2022/01/23 15:59:18;;;;;;;3.00;0.80;;;7.20;99.90;;;;;;5094131;28;20689;-66
2022/01/23 16:01:49;;;;;;;2.27;0.97;;;7.20;99.90;;;;;;5077815;28;20993;-65
2022/01/23 16:04:18;;;;;;;5.27;1.40;;;7.20;99.90;;;;;;5080656;28;20694;-67
2022/01/23 16:06:45;;;;;;;6.13;1.13;;;7.10;99.90;;;;;;5082268;28;20174;-65
2022/01/23 16:09:12;;;;;;;3.53;1.07;;;7.10;99.90;;;;;;5080925;28;20618;-68
2022/01/23 16:11:39;;;;;;;2.60;1.00;;;7.10;99.90;;;;;;5076031;28;20186;-67
2022/01/23 16:14:05;;;;;;;1.93;0.93;;;7.10;99.90;;;;;;5082835;28;20190;-66
2022/01/23 16:16:32;;;;;;;5.43;0.93;;;7.10;99.90;;;;;;5076368;28;20190;-67
2022/01/23 16:19:00;;;;;;;2.37;0.90;;;7.10;99.90;;;;;;5060791;28;20202;-65
2022/01/23 16:21:30;;;;;;;4.03;1.27;;;7.10;99.90;;;;;;5080557;28;20209;-68
2022/01/23 16:23:57;;;;;;;4.43;0.93;;;7.10;99.90;;;;;;5079334;28;20182;-65
2022/01/23 16:26:24;;;;;;;2.77;0.93;;;7.10;99.90;;;;;;5081758;28;20282;-68
2022/01/23 16:28:50;;;;;;;3.70;0.70;;;7.10;99.90;;;;;;5089213;28;20194;-64
2022/01/23 16:31:17;;;;;;;3.23;0.80;;;7.10;99.90;;;;;;5080366;28;20666;-65
2022/01/23 16:33:43;;;;;;;2.43;0.97;;;7.10;99.90;;;;;;5056251;28;20302;-66
2022/01/23 16:36:10;;;;;;;1.27;0.70;;;7.10;99.90;;;;;;5073239;28;20236;-65
2022/01/23 16:38:38;;;;;;;1.80;0.50;;;7.10;99.90;;;;;;5077541;28;20190;-65
2022/01/23 16:41:05;;;;;;;2.67;0.90;;;7.00;99.90;;;;;;5096609;27;20424;-66
2022/01/23 16:43:33;;;;;;;5.20;1.00;;;7.00;99.90;;;;;;5059797;28;20191;-68
2022/01/23 16:46:01;;;;;;;4.80;1.00;;;7.00;99.90;;;;;;5075988;28;20195;-66
2022/01/23 16:48:29;;;;;;;4.27;1.00;;;7.00;99.90;;;;;;5069703;28;20183;-65
2022/01/23 16:50:59;;;;;;;2.03;0.80;;;7.00;99.90;;;;;;5053626;28;20206;-67
2022/01/23 16:53:26;;;;;;;4.70;0.93;;;7.00;99.90;;;;;;5042775;28;20286;-67
2022/01/23 16:55:57;;;;;;;1.93;0.87;;;7.00;99.90;;;;;;5044927;28;20266;-69
2022/01/23 16:58:30;;;;;;;1.63;0.90;;;7.00;99.90;;;;;;5041144;28;20222;-69